St. James, MN

11:30 PM CDT on May 21, 2018 (GMT -0500)
Saint James Municipal

Weather History for KJYG - February, 2013

Change the Weather History Date:

Tuesday, February 19, 2013

  Actual Average Record
Temperature  
Mean Temperature 2 °F -  
Max Temperature 5 °F 30 °F 60 °F (1981)
Min Temperature -2 °F 13 °F -15 °F (1959)
Degree Days  
Heating Degree Days 64    
Moisture  
Dew Point -8 °F    
Average Humidity 63    
Maximum Humidity 66    
Minimum Humidity 56    
Precipitation  
Precipitation 0.00 in - - ()
Sea Level Pressure  
Sea Level Pressure 30.18 in    
Wind  
Wind Speed 26 mph (WNW)    
Max Wind Speed 32 mph    
Max Gust Speed 43 mph    
Visibility 8 miles    
Events      
Averages and records for this station are not official NWS values.
T = Trace of Precipitation, MM = Missing Value Source: NWS Daily Summary

Daily Weather History Graph

Daily Weather History Graph

Search for Another Location

Airport or City:

Astronomy

Feb. 19, 2013 Rise Set
Actual Time 7:10 AM CST 5:53 PM CST
Civil Twilight 6:41 AM CST 6:23 PM CST
Nautical Twilight 6:07 AM CST 6:56 PM CST
Astronomical Twilight 5:34 AM CST 7:30 PM CST
Moon 12:19 PM CST (2/19) 2:49 AM CST (2/19)
Length of Visible Light 11h 41m
Length of Day
10h 42m
Waxing Gibbous, 67% of the Moon is Illuminated
Feb 19
Waxing Gibbous
Feb 25
Full
Mar 4
Last Quarter
Mar 11
New
Mar 19
First Quarter

Hourly Weather History & Observations

Time (CST) Temp. Windchill Dew Point Humidity Pressure Visibility Wind Dir Wind Speed Gust Speed Precip Events Conditions
12:15 AM 3.2 °F -21.8 °F -5.8 °F 66% 29.93 in 4.0 mi WNW 31.1 mph 40.3 mph N/A   Haze
12:34 AM 3.2 °F -21.5 °F -5.8 °F 66% 29.94 in 5.0 mi WNW 29.9 mph 41.4 mph N/A   Haze
12:55 AM 3.2 °F -22.2 °F -7.6 °F 61% 29.95 in 10.0 mi WNW 32.2 mph 39.1 mph N/A   Overcast
1:15 AM 3.2 °F -21.8 °F -7.6 °F 61% 29.95 in 5.0 mi WNW 31.1 mph 41.4 mph N/A   Haze
1:34 AM 3.2 °F -21.8 °F -5.8 °F 66% 29.96 in 4.0 mi WNW 31.1 mph 38.0 mph N/A   Haze
1:55 AM 3.2 °F -20.7 °F -5.8 °F 66% 29.97 in 7.0 mi WNW 27.6 mph 39.1 mph N/A   Overcast
2:15 AM 3.2 °F -21.5 °F -5.8 °F 66% 29.98 in 7.0 mi WNW 29.9 mph 41.4 mph N/A   Overcast
2:34 AM 3.2 °F -20.3 °F -5.8 °F 66% 29.98 in 7.0 mi WNW 26.5 mph 31.1 mph N/A   Overcast
2:55 AM 3.2 °F -21.1 °F -7.6 °F 61% 30.00 in 7.0 mi WNW 28.8 mph 39.1 mph N/A   Overcast
3:15 AM 3.2 °F -21.1 °F -5.8 °F 66% 30.00 in 7.0 mi WNW 28.8 mph 36.8 mph N/A   Overcast
3:35 AM 3.2 °F -19.5 °F -5.8 °F 66% 30.01 in 7.0 mi WNW 24.2 mph 36.8 mph N/A   Overcast
3:55 AM 3.2 °F -19.5 °F -5.8 °F 66% 30.01 in 7.0 mi WNW 24.2 mph 33.4 mph N/A   Overcast
4:15 AM 3.2 °F -19.9 °F -7.6 °F 61% 30.01 in 10.0 mi WNW 25.3 mph 36.8 mph N/A   Overcast
4:35 AM 3.2 °F -20.3 °F -7.6 °F 61% 30.02 in 10.0 mi WNW 26.5 mph 34.5 mph N/A   Overcast
4:55 AM 3.2 °F -18.6 °F -5.8 °F 66% 30.03 in 5.0 mi WNW 21.9 mph 34.5 mph N/A   Haze
5:15 AM 3.2 °F -18.1 °F -7.6 °F 61% 30.04 in 7.0 mi WNW 20.7 mph 32.2 mph N/A   Overcast
5:35 AM 3.2 °F -19.9 °F -7.6 °F 61% 30.05 in 7.0 mi WNW 25.3 mph 36.8 mph N/A   Overcast
5:55 AM 3.2 °F -19.5 °F -7.6 °F 61% 30.06 in 5.0 mi WNW 24.2 mph 38.0 mph N/A   Haze
6:15 AM 1.4 °F -22.3 °F -7.6 °F 66% 30.06 in 7.0 mi WNW 25.3 mph 34.5 mph N/A   Overcast
6:35 AM 1.4 °F -23.2 °F -7.6 °F 66% 30.07 in 7.0 mi WNW 27.6 mph 34.5 mph N/A   Overcast
6:55 AM 1.4 °F -23.9 °F -7.6 °F 66% 30.08 in 7.0 mi WNW 29.9 mph 40.3 mph N/A   Overcast
7:14 AM 1.4 °F -22.7 °F -7.6 °F 66% 30.09 in 7.0 mi WNW 26.5 mph 35.7 mph N/A   Overcast
7:35 AM 1.4 °F -23.5 °F -7.6 °F 66% 30.10 in 1.8 mi WNW 28.8 mph 42.6 mph N/A   Haze
8:14 AM -0.4 °F -26.0 °F -11.2 °F 60% 30.13 in 10.0 mi WNW 28.8 mph 38.0 mph N/A   Overcast
8:35 AM -0.4 °F -25.6 °F -11.2 °F 60% 30.14 in 7.0 mi WNW 27.6 mph 36.8 mph N/A   Overcast
8:55 AM -0.4 °F -26.7 °F -11.2 °F 60% 30.15 in 7.0 mi WNW 31.1 mph 40.3 mph N/A   Overcast
9:14 AM -0.4 °F -26.7 °F -11.2 °F 60% 30.16 in 10.0 mi WNW 31.1 mph 39.1 mph N/A   Overcast
9:35 AM -0.4 °F -25.6 °F -9.4 °F 66% 30.17 in 3.0 mi WNW 27.6 mph 36.8 mph N/A   Haze
9:55 AM 1.4 °F -22.3 °F -9.4 °F 61% 30.17 in 4.0 mi WNW 25.3 mph 38.0 mph N/A   Haze
10:15 AM 1.4 °F -23.2 °F -9.4 °F 61% 30.19 in 5.0 mi WNW 27.6 mph 38.0 mph N/A   Haze
10:35 AM 1.4 °F -22.7 °F -9.4 °F 61% 30.19 in 7.0 mi WNW 26.5 mph 38.0 mph N/A   Overcast
10:55 AM 1.4 °F -21.4 °F -7.6 °F 66% 30.20 in 10.0 mi WNW 23.0 mph 36.8 mph N/A   Overcast
11:15 AM 1.4 °F -23.5 °F -7.6 °F 66% 30.20 in 5.0 mi WNW 28.8 mph 36.8 mph N/A   Haze
11:35 AM 3.2 °F -20.7 °F -7.6 °F 61% 30.21 in 7.0 mi WNW 27.6 mph 33.4 mph N/A   Overcast
11:55 AM 3.2 °F -19.0 °F -7.6 °F 61% 30.21 in 10.0 mi WNW 23.0 mph 34.5 mph N/A   Mostly Cloudy
12:15 PM 3.2 °F -19.9 °F -7.6 °F 61% 30.21 in 7.0 mi WNW 25.3 mph 33.4 mph N/A   Mostly Cloudy
12:35 PM 3.2 °F -19.5 °F -7.6 °F 61% 30.22 in 10.0 mi WNW 24.2 mph 32.2 mph N/A   Mostly Cloudy
12:55 PM 3.2 °F -21.1 °F -7.6 °F 61% 30.22 in 7.0 mi WNW 28.8 mph 35.7 mph N/A   Mostly Cloudy
1:15 PM 3.2 °F -20.3 °F -5.8 °F 66% 30.22 in 7.0 mi WNW 26.5 mph 34.5 mph N/A   Scattered Clouds
1:35 PM 5.0 °F -17.1 °F -5.8 °F 61% 30.22 in 7.0 mi WNW 24.2 mph 34.5 mph N/A   Mostly Cloudy
1:55 PM 3.2 °F -19.5 °F -5.8 °F 66% 30.22 in 5.0 mi WNW 24.2 mph 32.2 mph N/A   Haze
2:15 PM 3.2 °F -21.5 °F -7.6 °F 61% 30.22 in 7.0 mi WNW 29.9 mph 38.0 mph N/A   Mostly Cloudy
2:35 PM 5.0 °F -17.5 °F -7.6 °F 56% 30.23 in 5.0 mi WNW 25.3 mph 34.5 mph N/A   Haze
2:55 PM 3.2 °F -19.0 °F -7.6 °F 61% 30.23 in 10.0 mi WNW 23.0 mph 33.4 mph N/A   Scattered Clouds
3:15 PM 5.0 °F -16.7 °F -5.8 °F 61% 30.25 in 7.0 mi WNW 23.0 mph 32.2 mph N/A   Scattered Clouds
3:35 PM 5.0 °F -16.2 °F -7.6 °F 56% 30.25 in 7.0 mi WNW 21.9 mph 33.4 mph N/A   Scattered Clouds
3:55 PM 3.2 °F -19.5 °F -7.6 °F 61% 30.25 in 10.0 mi WNW 24.2 mph 31.1 mph N/A   Scattered Clouds
4:15 PM 5.0 °F -18.3 °F -7.6 °F 56% 30.26 in 7.0 mi WNW 27.6 mph 31.1 mph N/A   Scattered Clouds
4:35 PM 3.2 °F -18.6 °F -7.6 °F 61% 30.27 in 10.0 mi NW 21.9 mph 31.1 mph N/A   Scattered Clouds
4:55 PM 3.2 °F -19.5 °F -7.6 °F 61% 30.27 in 7.0 mi WNW 24.2 mph 29.9 mph N/A   Scattered Clouds
5:15 PM 3.2 °F -18.1 °F -7.6 °F 61% 30.28 in 10.0 mi WNW 20.7 mph 31.1 mph N/A   Mostly Cloudy
6:35 PM 1.4 °F -19.4 °F -9.4 °F 61% 30.31 in 10.0 mi WNW 18.4 mph 27.6 mph N/A   Scattered Clouds
6:55 PM -0.4 °F -21.7 °F -11.2 °F 60% 30.31 in 10.0 mi NW 18.4 mph 26.5 mph N/A   Scattered Clouds
7:15 PM -0.4 °F -21.2 °F -9.4 °F 66% 30.32 in 10.0 mi WNW 17.3 mph - N/A   Clear
7:35 PM -0.4 °F -22.3 °F -11.2 °F 60% 30.33 in 10.0 mi WNW 19.6 mph - N/A   Clear
7:55 PM -0.4 °F -20.5 °F -11.2 °F 60% 30.33 in 10.0 mi NW 16.1 mph 23.0 mph N/A   Clear
8:15 PM -0.4 °F -19.9 °F -11.2 °F 60% 30.34 in 10.0 mi WNW 15.0 mph 20.7 mph N/A   Clear
8:34 PM -0.4 °F -20.5 °F -11.2 °F 60% 30.34 in 10.0 mi WNW 16.1 mph 21.9 mph N/A   Clear
8:55 PM -2.2 °F -22.9 °F -11.2 °F 66% 30.35 in 10.0 mi WNW 16.1 mph 20.7 mph N/A   Clear
9:15 PM -2.2 °F -20.7 °F -11.2 °F 66% 30.35 in 10.0 mi WNW 12.7 mph - N/A   Clear
9:35 PM -2.2 °F -21.5 °F -11.2 °F 66% 30.36 in 10.0 mi NW 13.8 mph 18.4 mph N/A   Clear
9:55 PM -2.2 °F -20.7 °F -11.2 °F 66% 30.37 in 10.0 mi NW 12.7 mph - N/A   Clear
10:15 PM -2.2 °F -19.9 °F -11.2 °F 66% 30.37 in 10.0 mi NW 11.5 mph - N/A   Clear
10:35 PM -2.2 °F -20.7 °F -11.2 °F 66% 30.37 in 10.0 mi WNW 12.7 mph - N/A   Clear
10:54 PM -2.2 °F -21.5 °F -11.2 °F 66% 30.38 in 10.0 mi WNW 13.8 mph - N/A   Clear
11:15 PM -2.2 °F -22.2 °F -11.2 °F 66% 30.39 in 10.0 mi WNW 15.0 mph - N/A   Clear
11:35 PM -2.2 °F -22.2 °F -11.2 °F 66% 30.39 in 10.0 mi WNW 15.0 mph - N/A   Clear
11:55 PM -2.2 °F -20.7 °F -11.2 °F 66% 30.39 in 10.0 mi WNW 12.7 mph - N/A   Clear